createdAt,value
2022-12-29T00:00:11.738Z,99922.59
2022-12-29T00:02:39.216Z,99924.66
2022-12-29T00:05:08.004Z,99924.66
2022-12-29T00:07:35.431Z,99911.66
2022-12-29T00:10:28.421Z,99927.38
2022-12-29T00:13:17.301Z,99912.09
2022-12-29T00:15:44.641Z,99912.75
2022-12-29T00:18:12.162Z,99900.22
2022-12-29T00:20:58.198Z,99898.56
2022-12-29T00:23:44.075Z,99899.03
2022-12-29T00:26:36.589Z,99905.19
2022-12-29T00:29:22.281Z,99901.56
2022-12-29T00:32:08.268Z,99903.34
2022-12-29T00:34:54.265Z,99911.28
2022-12-29T00:37:43.593Z,99905.13
2022-12-29T00:40:29.551Z,99889.22
2022-12-29T00:43:15.453Z,99896.06
2022-12-29T00:45:42.984Z,99888.94
2022-12-29T00:48:10.182Z,99891.56
2022-12-29T00:50:37.499Z,99883.78
2022-12-29T00:53:04.797Z,99882.56
2022-12-29T00:55:32.291Z,99875.75
2022-12-29T00:57:59.663Z,99880.06
2022-12-29T01:00:26.987Z,99880.13
2022-12-29T01:02:54.575Z,99869.00
2022-12-29T01:05:22.096Z,99880.50
2022-12-29T01:07:49.266Z,99877.88
2022-12-29T01:10:16.634Z,99884.75
2022-12-29T01:12:46.267Z,99896.22
2022-12-29T01:15:15.553Z,99879.78
2022-12-29T01:17:43.454Z,99869.34
2022-12-29T01:20:11.968Z,99875.25
2022-12-29T01:22:39.615Z,99881.56
2022-12-29T01:25:07.724Z,99870.03
2022-12-29T01:27:35.231Z,99874.59
2022-12-29T01:30:02.447Z,99875.38
2022-12-29T01:32:29.742Z,99875.38
2022-12-29T01:34:56.965Z,99862.34
2022-12-29T01:37:24.269Z,99865.56
2022-12-29T01:39:51.407Z,99864.63
2022-12-29T01:42:20.968Z,99856.75
2022-12-29T01:44:50.003Z,99860.88
2022-12-29T01:47:31.935Z,99869.75
2022-12-29T01:50:04.761Z,99867.91
2022-12-29T01:52:33.987Z,99854.97
2022-12-29T01:55:03.874Z,99861.88
2022-12-29T01:57:34.152Z,99856.66
2022-12-29T02:00:10.418Z,99848.88
2022-12-29T02:02:38.115Z,99846.28
2022-12-29T02:05:12.629Z,99848.13
2022-12-29T02:07:43.531Z,99841.47
2022-12-29T02:10:10.790Z,99847.94
2022-12-29T02:12:38.162Z,99833.34
2022-12-29T02:15:06.125Z,99835.94
2022-12-29T02:18:16.022Z,99829.66
2022-12-29T02:21:04.606Z,99826.97
2022-12-29T02:24:07.697Z,99821.91
2022-12-29T02:27:07.277Z,99828.81
2022-12-29T02:29:51.329Z,99821.53
2022-12-29T02:32:31.200Z,99816.13
2022-12-29T02:35:01.819Z,99812.47
2022-12-29T02:37:41.254Z,99818.44
2022-12-29T02:40:25.117Z,99810.31
2022-12-29T02:42:56.537Z,99801.72
2022-12-29T02:45:33.241Z,99806.97
2022-12-29T02:48:11.177Z,99803.41
2022-12-29T02:50:41.992Z,99806.00
2022-12-29T02:53:12.486Z,99802.56
2022-12-29T02:55:42.229Z,99798.88
2022-12-29T02:58:23.540Z,99821.47
2022-12-29T03:01:17.863Z,99801.16
2022-12-29T03:04:12.121Z,99788.41
2022-12-29T03:07:01.272Z,99799.66
2022-12-29T03:09:49.668Z,99788.75
2022-12-29T03:13:06.188Z,99787.00
2022-12-29T03:16:08.199Z,99781.38
2022-12-29T03:19:08.307Z,99770.41
2022-12-29T03:22:18.918Z,99772.56
2022-12-29T03:24:50.687Z,99775.19
2022-12-29T03:27:39.628Z,99777.53
2022-12-29T03:30:08.231Z,99776.38
2022-12-29T03:32:49.971Z,99769.34
2022-12-29T03:35:18.955Z,99772.81
2022-12-29T03:38:20.489Z,99773.41
2022-12-29T03:40:54.108Z,99761.00
2022-12-29T03:43:22.802Z,99770.38
2022-12-29T03:45:50.219Z,99762.50
2022-12-29T03:48:17.644Z,99752.94
2022-12-29T03:50:45.620Z,99756.31
2022-12-29T03:53:13.157Z,99765.00
2022-12-29T03:55:40.760Z,99768.09
2022-12-29T03:58:08.320Z,99761.44
2022-12-29T04:00:35.903Z,99770.91
2022-12-29T04:03:03.225Z,99778.47
2022-12-29T04:05:30.695Z,99762.97
2022-12-29T04:07:58.223Z,99774.31
2022-12-29T04:10:25.554Z,99750.06
2022-12-29T04:12:53.035Z,99755.22
2022-12-29T04:15:20.523Z,99765.41
2022-12-29T04:17:47.833Z,99760.88
2022-12-29T04:20:33.707Z,99756.59
2022-12-29T04:23:02.329Z,99761.13
2022-12-29T04:25:29.873Z,99753.78
2022-12-29T04:27:57.192Z,99766.97
2022-12-29T04:30:38.546Z,99778.03
2022-12-29T04:33:06.542Z,99760.28
2022-12-29T04:35:33.889Z,99753.91
2022-12-29T04:38:01.387Z,99763.66
2022-12-29T04:40:28.601Z,99762.59
2022-12-29T04:42:56.012Z,99744.16
2022-12-29T04:45:23.195Z,99741.31
2022-12-29T04:47:50.389Z,99754.34
2022-12-29T04:50:17.801Z,99745.09
2022-12-29T04:52:45.158Z,99740.81
2022-12-29T04:55:12.330Z,99739.25
2022-12-29T04:57:39.581Z,99740.91
2022-12-29T05:00:07.487Z,99733.88
2022-12-29T05:02:34.996Z,99731.13
2022-12-29T05:05:02.323Z,99732.19
2022-12-29T05:07:29.533Z,99734.06
2022-12-29T05:09:56.765Z,99736.50
2022-12-29T05:12:23.898Z,99730.09
2022-12-29T05:14:51.138Z,99731.59
2022-12-29T05:17:18.356Z,99730.53
2022-12-29T05:19:45.796Z,99721.28
2022-12-29T05:22:12.942Z,99723.25
2022-12-29T05:24:40.137Z,99717.69
2022-12-29T05:27:07.351Z,99712.56
2022-12-29T05:29:34.803Z,99721.38
2022-12-29T05:32:02.058Z,99697.44
2022-12-29T05:34:29.225Z,99704.25
2022-12-29T05:36:56.357Z,99696.38
2022-12-29T05:39:23.668Z,99728.53
2022-12-29T05:41:50.869Z,99694.06
2022-12-29T05:44:18.247Z,99685.88
2022-12-29T05:46:45.526Z,99706.91
2022-12-29T05:49:12.777Z,99693.66
2022-12-29T05:51:40.175Z,99703.75
2022-12-29T05:54:07.304Z,99688.72
2022-12-29T05:56:34.468Z,99699.97
2022-12-29T05:59:01.693Z,99692.63
2022-12-29T06:01:28.944Z,99700.38
2022-12-29T06:03:56.215Z,99679.28
2022-12-29T06:06:23.537Z,99687.75
2022-12-29T06:08:50.638Z,99683.13
2022-12-29T06:11:17.800Z,99684.59
2022-12-29T06:13:45.009Z,99676.72
2022-12-29T06:16:12.276Z,99687.03
2022-12-29T06:18:39.511Z,99675.56
2022-12-29T06:21:06.727Z,99687.94
2022-12-29T06:23:34.437Z,99686.19
2022-12-29T06:26:01.617Z,99682.28
2022-12-29T06:28:28.803Z,99690.81
2022-12-29T06:30:55.973Z,99680.81
2022-12-29T06:33:23.211Z,99687.72
2022-12-29T06:35:50.567Z,99701.59
2022-12-29T06:38:17.686Z,99691.00
2022-12-29T06:40:46.053Z,99698.53
2022-12-29T06:43:13.396Z,99691.63
2022-12-29T06:45:41.170Z,99693.38
2022-12-29T06:48:08.822Z,99698.53
2022-12-29T06:50:36.078Z,99701.19
2022-12-29T06:53:03.317Z,99697.47
2022-12-29T06:55:30.626Z,99703.56
2022-12-29T06:57:59.400Z,99705.28
2022-12-29T07:00:26.943Z,99703.47
2022-12-29T07:02:56.190Z,99722.72
2022-12-29T07:05:23.516Z,99727.16
2022-12-29T07:07:50.684Z,99714.94
2022-12-29T07:10:17.903Z,99713.88
2022-12-29T07:12:45.088Z,99699.69
2022-12-29T07:15:13.660Z,99698.84
2022-12-29T07:17:41.203Z,99706.00
2022-12-29T07:20:09.189Z,99721.03
2022-12-29T07:22:36.521Z,99721.97
2022-12-29T07:25:04.275Z,99723.56
2022-12-29T07:27:31.469Z,99708.63
2022-12-29T07:29:58.629Z,99716.63
2022-12-29T07:32:25.815Z,99721.56
2022-12-29T07:34:53.047Z,99709.97
2022-12-29T07:37:20.527Z,99697.25
2022-12-29T07:39:48.133Z,99703.38
2022-12-29T07:42:15.273Z,99696.56
2022-12-29T07:44:42.380Z,99701.91
2022-12-29T07:47:09.584Z,99701.06
2022-12-29T07:49:36.780Z,99699.91
2022-12-29T07:52:04.067Z,99694.63
2022-12-29T07:54:31.232Z,99702.53
2022-12-29T07:57:01.033Z,99695.38
2022-12-29T07:59:28.288Z,99702.31
2022-12-29T08:01:55.580Z,99708.81
2022-12-29T08:04:22.988Z,99715.84
2022-12-29T08:06:51.374Z,99709.63
2022-12-29T08:09:22.609Z,99702.50
2022-12-29T08:11:51.892Z,99705.00
2022-12-29T08:14:19.369Z,99705.63
2022-12-29T08:16:46.685Z,99707.44
2022-12-29T08:19:14.433Z,99691.78
2022-12-29T08:21:41.627Z,99708.06
2022-12-29T08:24:09.348Z,99690.34
2022-12-29T08:26:36.552Z,99715.94
2022-12-29T08:29:03.662Z,99708.78
2022-12-29T08:31:30.980Z,99714.16
2022-12-29T08:33:58.165Z,99698.59
2022-12-29T08:36:25.286Z,99704.69
2022-12-29T08:38:52.479Z,99699.31
2022-12-29T08:41:19.629Z,99695.75
2022-12-29T08:43:48.202Z,99690.34
2022-12-29T08:46:15.865Z,99698.38
2022-12-29T08:48:43.100Z,99695.75
2022-12-29T08:51:10.304Z,99708.66
2022-12-29T08:53:37.437Z,99706.78
2022-12-29T08:56:05.737Z,99716.34
2022-12-29T08:58:33.194Z,99709.09
2022-12-29T09:01:00.405Z,99706.25
2022-12-29T09:06:17.778Z,99697.78
2022-12-29T09:08:45.324Z,99699.69
2022-12-29T09:11:21.473Z,99685.38
2022-12-29T09:13:49.163Z,99697.06
2022-12-29T09:16:17.713Z,99683.69
2022-12-29T09:18:45.615Z,99694.81
2022-12-29T09:21:13.620Z,99686.59
2022-12-29T09:23:41.542Z,99695.94
2022-12-29T09:26:09.521Z,99689.41
2022-12-29T09:28:37.741Z,99739.16
2022-12-29T09:31:05.208Z,99683.69
2022-12-29T09:33:34.337Z,99686.31
2022-12-29T09:36:01.973Z,99681.31
2022-12-29T09:38:29.684Z,99686.59
2022-12-29T09:41:02.858Z,99683.84
2022-12-29T09:43:53.676Z,99674.75
2022-12-29T09:46:28.877Z,99667.81
2022-12-29T09:49:09.612Z,99675.09
2022-12-29T09:51:39.533Z,99662.06
2022-12-29T09:54:32.063Z,99661.59
2022-12-29T09:56:59.667Z,99661.13
2022-12-29T09:59:55.445Z,99659.72
2022-12-29T10:02:39.073Z,99672.19
2022-12-29T10:05:16.373Z,99685.34
2022-12-29T10:07:53.767Z,99675.78
2022-12-29T10:10:20.972Z,99673.03
2022-12-29T10:13:00.130Z,99673.03
2022-12-29T10:15:48.620Z,99670.25
2022-12-29T10:18:40.780Z,99666.22
2022-12-29T10:21:26.495Z,99668.28
2022-12-29T10:23:54.568Z,99665.41
2022-12-29T10:26:27.502Z,99662.53
2022-12-29T10:28:58.844Z,99657.66
2022-12-29T10:31:40.834Z,99674.88
2022-12-29T10:34:38.248Z,99666.16
2022-12-29T10:37:12.888Z,99673.22
2022-12-29T10:39:59.253Z,99661.84
2022-12-29T10:42:28.237Z,99663.75
2022-12-29T10:44:56.372Z,99674.50
2022-12-29T10:47:26.736Z,99679.22
2022-12-29T10:49:59.367Z,99680.91
2022-12-29T10:52:27.908Z,99666.28
2022-12-29T10:55:18.375Z,99653.44
2022-12-29T10:57:46.557Z,99663.28
2022-12-29T11:00:21.613Z,99666.16
2022-12-29T11:03:00.101Z,99658.84
2022-12-29T11:05:36.042Z,99638.69
2022-12-29T11:08:09.492Z,99663.41
2022-12-29T11:10:39.950Z,99657.16
2022-12-29T11:13:19.034Z,99708.22
2022-12-29T11:15:50.908Z,99647.44
2022-12-29T11:18:26.977Z,99641.34
2022-12-29T11:21:02.410Z,99649.50
2022-12-29T11:23:31.103Z,99646.63
2022-12-29T11:26:26.471Z,99646.97
2022-12-29T11:29:09.823Z,99653.31
2022-12-29T11:31:45.281Z,99654.28
2022-12-29T11:34:27.862Z,99661.34
2022-12-29T11:37:01.679Z,99667.72
2022-12-29T11:39:38.085Z,99666.59
2022-12-29T11:42:10.622Z,99672.59
2022-12-29T11:44:42.773Z,99661.84
2022-12-29T11:47:15.082Z,99676.69
2022-12-29T11:49:42.465Z,99674.78
2022-12-29T11:52:10.469Z,99649.50
2022-12-29T11:54:39.204Z,99666.63
2022-12-29T11:57:15.255Z,99667.34
2022-12-29T11:59:45.172Z,99672.97
2022-12-29T12:02:51.407Z,99687.47
2022-12-29T12:05:28.157Z,99700.75
2022-12-29T12:08:09.301Z,99682.66
2022-12-29T12:10:45.931Z,99681.59
2022-12-29T12:13:27.083Z,99676.53
2022-12-29T12:16:00.733Z,99670.31
2022-12-29T12:18:31.869Z,99688.97
2022-12-29T12:21:06.621Z,99702.34
2022-12-29T12:23:43.358Z,99694.63
2022-12-29T12:26:12.761Z,99694.50
2022-12-29T12:28:57.097Z,99696.38
2022-12-29T12:31:46.166Z,99691.38
2022-12-29T12:34:41.057Z,99684.84
2022-12-29T12:37:16.581Z,99691.41
2022-12-29T12:39:48.782Z,99680.28
2022-12-29T12:42:26.163Z,99678.97
2022-12-29T12:45:27.612Z,99678.75
2022-12-29T12:48:23.373Z,99676.06
2022-12-29T12:51:08.860Z,99669.25
2022-12-29T12:53:55.194Z,99677.53
2022-12-29T12:56:31.595Z,99679.44
2022-12-29T12:59:13.289Z,99674.19
2022-12-29T13:02:02.282Z,99676.13
2022-12-29T13:05:08.148Z,99680.50
2022-12-29T13:07:51.243Z,99678.38
2022-12-29T13:10:54.286Z,99683.78
2022-12-29T13:13:27.616Z,99687.00
2022-12-29T13:16:21.981Z,99683.75
2022-12-29T13:18:55.555Z,99677.47
2022-12-29T13:22:00.142Z,99689.03
2022-12-29T13:24:41.298Z,99681.25
2022-12-29T13:27:54.124Z,99689.97
2022-12-29T13:30:23.568Z,99697.41
2022-12-29T13:32:59.063Z,99689.00
2022-12-29T13:35:59.373Z,99696.31
2022-12-29T13:38:45.456Z,99687.22
2022-12-29T13:41:15.397Z,99695.34
2022-12-29T13:43:49.200Z,99688.00
2022-12-29T13:46:25.125Z,99694.00
2022-12-29T13:49:02.459Z,99696.16
2022-12-29T13:51:30.214Z,99702.47
2022-12-29T13:54:11.426Z,99692.91
2022-12-29T13:56:50.572Z,99683.78
2022-12-29T13:59:36.724Z,99699.00
2022-12-29T14:02:05.555Z,99705.94
2022-12-29T14:04:34.369Z,99703.53
2022-12-29T14:07:05.674Z,99711.63
2022-12-29T14:09:55.055Z,99713.94
2022-12-29T14:12:23.665Z,99713.34
2022-12-29T14:14:51.297Z,99711.63
2022-12-29T14:17:22.015Z,99714.19
2022-12-29T14:19:53.975Z,99720.41
2022-12-29T14:22:33.052Z,99725.06
2022-12-29T14:25:01.734Z,99724.81
2022-12-29T14:27:29.169Z,99727.56
2022-12-29T14:29:56.539Z,99727.91
2022-12-29T14:32:26.837Z,99735.09
2022-12-29T14:34:59.413Z,99731.22
2022-12-29T14:37:37.060Z,99735.16
2022-12-29T14:40:06.199Z,99747.34
2022-12-29T14:42:34.385Z,99752.00
2022-12-29T14:45:06.557Z,99746.22
2022-12-29T14:47:39.720Z,99754.53
2022-12-29T14:50:22.551Z,99744.44
2022-12-29T14:53:02.006Z,99746.97
2022-12-29T14:55:48.077Z,99745.72
2022-12-29T14:58:30.310Z,99755.41
2022-12-29T15:00:58.683Z,99754.78
2022-12-29T15:03:51.957Z,99754.78
2022-12-29T15:06:23.272Z,99768.78
2022-12-29T15:09:01.188Z,99760.25
2022-12-29T15:11:37.774Z,99759.44
2022-12-29T15:14:27.572Z,99769.94
2022-12-29T15:16:55.068Z,99788.78
2022-12-29T15:19:23.838Z,99809.94
2022-12-29T15:21:51.689Z,99825.84
2022-12-29T15:24:19.757Z,99815.47
2022-12-29T15:26:49.697Z,99815.34
2022-12-29T15:29:44.543Z,99802.00
2022-12-29T15:32:19.759Z,99805.56
2022-12-29T15:34:50.219Z,99803.78
2022-12-29T15:37:22.375Z,99802.16
2022-12-29T15:39:50.555Z,99793.06
2022-12-29T15:42:26.949Z,99797.34
2022-12-29T15:45:03.229Z,99794.41
2022-12-29T15:47:37.178Z,99797.03
2022-12-29T15:50:10.471Z,99802.00
2022-12-29T15:52:40.294Z,99806.72
2022-12-29T15:55:20.969Z,99804.34
2022-12-29T15:57:48.445Z,99812.94
2022-12-29T16:00:27.973Z,99816.53
2022-12-29T16:02:57.083Z,99824.41
2022-12-29T16:05:25.161Z,99823.66
2022-12-29T16:07:54.590Z,99828.94
2022-12-29T16:10:31.552Z,99832.63
2022-12-29T16:13:22.165Z,99834.72
2022-12-29T16:15:49.465Z,99839.03
2022-12-29T16:18:28.784Z,99850.19
2022-12-29T16:20:56.869Z,99845.25
2022-12-29T16:23:26.775Z,99843.22
2022-12-29T16:25:58.936Z,99842.19
2022-12-29T16:28:33.156Z,99841.97
2022-12-29T16:31:07.472Z,99847.66
2022-12-29T16:33:41.370Z,99849.75
2022-12-29T16:36:32.106Z,99865.63
2022-12-29T16:39:22.719Z,99873.41
2022-12-29T16:41:51.327Z,99858.16
2022-12-29T16:44:23.130Z,99858.91
2022-12-29T16:47:08.475Z,99866.97
2022-12-29T16:49:37.125Z,99863.63
2022-12-29T16:52:31.021Z,99865.50
2022-12-29T16:55:02.111Z,99876.00
2022-12-29T16:57:34.926Z,99878.75
2022-12-29T17:00:06.105Z,99865.81
2022-12-29T17:02:34.807Z,99869.28
2022-12-29T17:05:02.242Z,99868.03
2022-12-29T17:07:30.169Z,99877.50
2022-12-29T17:09:57.835Z,99889.78
2022-12-29T17:12:27.676Z,99888.22
2022-12-29T17:14:59.141Z,99894.41
2022-12-29T17:17:33.901Z,99898.75
2022-12-29T17:20:05.422Z,99893.25
2022-12-29T17:22:33.442Z,99892.44
2022-12-29T17:25:03.061Z,99893.50
2022-12-29T17:27:38.325Z,99897.78
2022-12-29T17:30:12.038Z,99894.97
2022-12-29T17:32:41.073Z,99894.31
2022-12-29T17:35:19.225Z,99903.38
2022-12-29T17:37:46.779Z,99901.69
2022-12-29T17:40:21.446Z,99911.88
2022-12-29T17:42:50.453Z,99901.28
2022-12-29T17:45:21.009Z,99913.66
2022-12-29T17:47:48.606Z,99904.94
2022-12-29T17:50:18.608Z,99902.66
2022-12-29T17:53:00.194Z,99901.00
2022-12-29T17:55:34.715Z,99898.34
2022-12-29T17:58:33.851Z,99901.31
2022-12-29T18:01:02.142Z,99902.88
2022-12-29T18:03:32.108Z,99901.06
2022-12-29T18:06:00.377Z,99916.25
2022-12-29T18:08:30.621Z,99907.72
2022-12-29T18:10:58.167Z,99912.97
2022-12-29T18:13:43.609Z,99917.16
2022-12-29T18:16:14.753Z,99908.75
2022-12-29T18:18:42.275Z,99920.03
2022-12-29T18:21:17.305Z,99903.69
2022-12-29T18:23:44.814Z,99913.47
2022-12-29T18:26:19.616Z,99923.03
2022-12-29T18:28:53.071Z,99922.31
2022-12-29T18:31:23.218Z,99922.50
2022-12-29T18:33:51.811Z,99930.41
2022-12-29T18:36:19.718Z,99937.56
2022-12-29T18:38:47.241Z,99947.22
2022-12-29T18:41:21.623Z,99946.38
2022-12-29T18:43:49.594Z,99948.91
2022-12-29T18:46:22.417Z,99944.78
2022-12-29T18:48:51.351Z,99946.28
2022-12-29T18:51:20.854Z,99943.72
2022-12-29T18:53:49.092Z,99950.06
2022-12-29T18:56:16.497Z,99942.16
2022-12-29T18:58:43.827Z,99943.97
2022-12-29T19:01:23.258Z,99934.59
2022-12-29T19:03:51.135Z,99937.94
2022-12-29T19:06:19.409Z,99953.94
2022-12-29T19:08:46.913Z,99956.44
2022-12-29T19:11:14.091Z,99954.00
2022-12-29T19:13:41.588Z,99953.81
2022-12-29T19:20:28.037Z,99956.59
2022-12-29T19:22:56.524Z,99957.78
2022-12-29T19:25:24.372Z,99962.16
2022-12-29T19:27:52.505Z,99962.91
2022-12-29T19:30:20.017Z,99961.97
2022-12-29T19:32:55.397Z,99966.38
2022-12-29T19:35:25.124Z,99969.84
2022-12-29T19:37:53.180Z,99970.34
2022-12-29T19:40:24.011Z,99971.69
2022-12-29T19:42:52.201Z,99977.25
2022-12-29T19:45:20.668Z,99973.41
2022-12-29T19:47:49.079Z,99978.66
2022-12-29T19:50:17.454Z,99984.03
2022-12-29T19:52:45.274Z,99975.50
2022-12-29T19:55:15.739Z,99987.97
2022-12-29T19:57:43.619Z,99982.72
2022-12-29T20:00:11.875Z,99991.16
2022-12-29T20:02:39.556Z,99979.81
2022-12-29T20:05:08.519Z,99978.84
2022-12-29T20:07:36.817Z,99981.69
2022-12-29T20:10:06.093Z,99976.63
2022-12-29T20:12:35.213Z,99977.38
2022-12-29T20:15:02.852Z,99973.81
2022-12-29T20:18:02.626Z,99985.25
2022-12-29T20:20:17.656Z,99981.78
2022-12-29T20:22:44.960Z,99979.16
2022-12-29T20:25:43.832Z,99976.44
2022-12-29T20:28:00.164Z,99978.19
2022-12-29T20:30:27.600Z,99974.38
2022-12-29T20:32:55.012Z,99974.38
2022-12-29T20:35:22.457Z,99979.81
2022-12-29T20:37:49.849Z,99981.41
2022-12-29T20:40:20.456Z,99982.44
2022-12-29T20:42:47.831Z,99978.31
2022-12-29T20:45:15.246Z,99977.91
2022-12-29T20:47:42.566Z,99973.53
2022-12-29T20:50:09.800Z,99979.69
2022-12-29T20:52:37.115Z,99973.41
2022-12-29T20:55:04.597Z,99973.59
2022-12-29T20:57:49.658Z,99979.63
2022-12-29T21:00:22.661Z,99969.94
2022-12-29T21:02:50.550Z,99973.41
2022-12-29T21:05:25.793Z,99973.31
2022-12-29T21:07:55.191Z,99971.53
2022-12-29T21:10:22.655Z,99973.78
2022-12-29T21:12:50.178Z,99970.38
2022-12-29T21:15:17.608Z,99985.13
2022-12-29T21:17:45.775Z,99980.16
2022-12-29T21:20:22.119Z,99976.69
2022-12-29T21:22:49.640Z,99983.75
2022-12-29T21:25:17.200Z,99965.25
2022-12-29T21:27:44.609Z,99993.28
2022-12-29T21:30:12.821Z,99973.13
2022-12-29T21:32:41.073Z,99978.38
2022-12-29T21:35:09.427Z,99980.06
2022-12-29T21:37:37.088Z,99984.66
2022-12-29T21:40:05.769Z,99998.72
2022-12-29T21:42:33.211Z,99985.91
2022-12-29T21:45:21.014Z,99987.78
2022-12-29T21:48:07.657Z,99994.63
2022-12-29T21:50:58.636Z,99996.88
2022-12-29T21:53:37.903Z,100001.28
2022-12-29T21:56:09.633Z,100012.44
2022-12-29T21:58:57.497Z,100013.38
2022-12-29T22:01:44.552Z,100014.53
2022-12-29T22:04:32.567Z,100021.84
2022-12-29T22:07:18.336Z,100019.41
2022-12-29T22:10:04.389Z,100024.09
2022-12-29T22:12:50.628Z,100010.25
2022-12-29T22:15:18.191Z,100011.38
2022-12-29T22:17:48.835Z,100019.59
2022-12-29T22:20:20.796Z,100018.03
2022-12-29T22:22:48.372Z,100017.47
2022-12-29T22:25:15.893Z,100018.38
2022-12-29T22:27:43.763Z,100029.25
2022-12-29T22:30:11.698Z,100019.50
2022-12-29T22:32:39.249Z,100015.97
2022-12-29T22:35:08.251Z,100014.25
2022-12-29T22:37:37.060Z,100006.59
2022-12-29T22:40:05.667Z,100011.34
2022-12-29T22:42:33.422Z,100011.44
2022-12-29T22:45:00.732Z,100027.56
2022-12-29T22:47:28.350Z,100035.22
2022-12-29T22:49:55.770Z,100037.19
2022-12-29T22:52:23.206Z,100048.63
2022-12-29T22:54:50.645Z,100031.03
2022-12-29T22:57:18.122Z,100043.03
2022-12-29T22:59:45.488Z,100039.47
2022-12-29T23:02:13.421Z,100049.47
2022-12-29T23:05:02.905Z,100052.38
2022-12-29T23:07:28.955Z,100054.34
2022-12-29T23:09:56.398Z,100051.91
2022-12-29T23:12:23.747Z,100057.41
2022-12-29T23:14:51.023Z,100056.81
2022-12-29T23:17:18.417Z,100056.03
2022-12-29T23:19:45.737Z,100066.47
2022-12-29T23:22:13.280Z,100071.72
2022-12-29T23:24:40.564Z,100072.56
2022-12-29T23:27:08.025Z,100073.41
2022-12-29T23:29:35.492Z,100075.78
2022-12-29T23:32:02.936Z,100068.38
2022-12-29T23:34:30.586Z,100082.94
2022-12-29T23:37:00.202Z,100087.31
2022-12-29T23:39:29.171Z,100091.66
2022-12-29T23:41:57.239Z,100085.47
2022-12-29T23:44:25.206Z,100091.91
2022-12-29T23:46:53.108Z,100089.19
2022-12-29T23:49:20.822Z,100082.72
2022-12-29T23:51:48.151Z,100082.72
2022-12-29T23:54:15.638Z,100090.22
2022-12-29T23:56:43.019Z,100097.16
2022-12-29T23:59:10.576Z,100103.78
